RS-0007 weather

Smederevo Airport
Smederevo, Podunavlje, Serbia

Public forecast

Using degrees Celsius for public forecast. Weather courtesy of forecast.io.

METAR (pilot weather report)

Closest report is Belgrade Nikola Tesla Airport, 29.8 nm (55.1 km) WNW. Retrieved 2019/06/16 17:30 UTC (28 minutes ago):

LYBE 161730Z 07004KT CAVOK 31/18 Q1011 NOSIG

TAF (pilot weather forecast)

Closest forecast is Belgrade Nikola Tesla Airport, 29.8 nm (55.1 km) WNW. Retrieved 2019/06/16 12:21 UTC (6 hours ago):

TAF LYBE 161100Z 1612/1712 12009KT CAVOK TX34/1613Z TN18/1703Z TEMPO 1618/1621 5000 TSRA SCT030CB BKN033 BECMG 1701/1703 35010KT TEMPO 1702/1709 35015G25KT 3000 TSRA SCT030CB BKN033